Time;durP1;ratioP1;P1;durP2;ratioP2;P2;SDS_P1;SDS_P2;PMS_P1;PMS_P2;Temp;Humidity;BMP_temperature;BMP_pressure;BME280_temperature;BME280_humidity;BME280_pressure;Samples;Min_cycle;Max_cycle;Signal;HPM_P1;HPM_P2
2022/05/13 00:01:13;;;;;;;6.83;2.90;;;10.40;99.90;;;;;;5074171;28;20105;-83
2022/05/13 00:03:41;;;;;;;7.83;2.93;;;10.40;99.90;;;;;;5089094;28;20048;-83
2022/05/13 00:06:08;;;;;;;5.93;2.90;;;10.40;99.90;;;;;;5073770;28;20056;-82
2022/05/13 00:08:34;;;;;;;6.73;2.87;;;10.60;99.90;;;;;;5075320;28;20067;-83
2022/05/13 00:11:10;;;;;;;12.67;3.47;;;10.40;99.90;;;;;;5066128;28;20461;-83
2022/05/13 00:13:37;;;;;;;9.33;3.50;;;10.70;99.90;;;;;;5056504;28;20391;-84
2022/05/13 00:16:04;;;;;;;10.53;3.33;;;10.70;99.90;;;;;;5089533;28;20558;-84
2022/05/13 00:18:33;;;;;;;7.00;3.20;;;10.50;99.90;;;;;;5089716;28;20085;-84
2022/05/13 00:21:28;;;;;;;7.17;2.93;;;10.70;99.90;;;;;;5055815;28;20071;-84
2022/05/13 00:23:57;;;;;;;7.70;3.50;;;10.50;99.90;;;;;;5072947;28;20482;-83
2022/05/13 00:26:56;;;;;;;8.00;2.83;;;10.60;99.90;;;;;;5071349;28;20042;-82
2022/05/13 00:29:22;;;;;;;12.23;3.50;;;10.60;99.90;;;;;;5089880;28;20040;-83
2022/05/13 00:31:49;;;;;;;9.90;2.97;;;10.60;99.90;;;;;;5071650;28;20402;-83
2022/05/13 00:34:26;;;;;;;11.00;3.23;;;10.70;99.90;;;;;;5074485;28;20418;-83
2022/05/13 00:36:58;;;;;;;6.20;2.70;;;10.90;99.90;;;;;;5055520;28;20040;-85
2022/05/13 00:39:26;;;;;;;10.93;3.23;;;10.80;99.90;;;;;;5087551;28;20048;-85
2022/05/13 00:42:32;;;;;;;5.43;2.53;;;11.00;99.90;;;;;;5072359;28;20032;-83
2022/05/13 00:45:14;;;;;;;8.23;3.00;;;10.90;99.90;;;;;;5085618;28;20501;-85
2022/05/13 00:51:53;;;;;;;7.77;2.73;;;10.80;99.90;;;;;;5086385;28;20081;-85
2022/05/13 00:54:20;;;;;;;12.00;2.53;;;11.20;99.90;;;;;;5092390;28;20046;-84
2022/05/13 00:57:36;;;;;;;9.17;3.00;;;11.30;99.90;;;;;;5073075;28;20382;-84
2022/05/13 01:00:12;;;;;;;8.50;2.90;;;11.30;99.90;;;;;;5077695;28;20131;-82
2022/05/13 01:02:43;;;;;;;7.40;2.60;;;11.30;99.90;;;;;;5049739;28;20391;-83
2022/05/13 01:08:58;;;;;;;10.27;3.50;;;11.30;99.90;;;;;;5090061;28;20460;-85
2022/05/13 01:11:35;;;;;;;8.17;3.00;;;11.40;99.90;;;;;;5068270;28;20040;-85
2022/05/13 01:14:05;;;;;;;7.40;2.97;;;11.30;99.90;;;;;;5059452;28;20134;-83
2022/05/13 01:20:52;;;;;;;;;;;11.40;99.90;;;;;;5096457;28;20177;-87
2022/05/13 01:24:17;;;;;;;;;;;;;;;;;;;;;
2022/05/13 01:27:26;;;;;;;;;;;11.40;99.90;;;;;;5072478;28;20532;-84
2022/05/13 01:33:49;;;;;;;8.87;2.97;;;11.30;99.90;;;;;;5045223;28;20052;-85
2022/05/13 01:36:21;;;;;;;8.20;3.00;;;11.40;99.90;;;;;;5032655;28;20040;-86
2022/05/13 01:39:03;;;;;;;10.90;2.50;;;11.30;99.90;;;;;;5033732;28;20045;-84
2022/05/13 01:42:32;;;;;;;9.57;2.90;;;11.30;99.90;;;;;;5066308;28;20121;-84
2022/05/13 01:44:57;;;;;;;15.00;3.40;;;11.20;99.90;;;;;;5066284;28;20380;-84
2022/05/13 01:47:27;;;;;;;12.63;2.70;;;11.20;99.90;;;;;;5073342;28;20092;-85
2022/05/13 01:49:58;;;;;;;10.73;2.90;;;11.30;99.90;;;;;;5076006;28;20039;-86
2022/05/13 01:52:55;;;;;;;10.87;2.90;;;11.50;99.90;;;;;;5073969;28;20297;-85
2022/05/13 01:55:33;;;;;;;8.83;2.73;;;11.50;99.90;;;;;;5060297;28;20047;-84
2022/05/13 01:58:50;;;;;;;8.43;2.67;;;11.30;99.90;;;;;;5055173;28;20040;-85
2022/05/13 02:01:33;;;;;;;8.13;2.47;;;11.50;99.90;;;;;;5090722;28;20089;-83
2022/05/13 02:04:25;;;;;;;11.13;2.70;;;11.60;99.90;;;;;;5092559;28;20122;-83
2022/05/13 02:06:57;;;;;;;15.03;3.03;;;11.40;99.90;;;;;;5070547;28;20043;-84
2022/05/13 02:12:53;;;;;;;7.03;2.50;;;11.40;99.90;;;;;;5060148;28;20071;-84
2022/05/13 02:15:34;;;;;;;10.00;2.83;;;11.50;99.90;;;;;;5088317;28;20040;-83
2022/05/13 02:18:01;;;;;;;10.00;2.50;;;11.50;99.90;;;;;;5057617;28;20035;-85
2022/05/13 02:21:29;;;;;;;8.63;2.90;;;11.40;99.90;;;;;;5089770;28;20063;-83
2022/05/13 02:24:02;;;;;;;8.17;2.33;;;11.50;99.90;;;;;;5011739;28;20049;-84
2022/05/13 02:26:58;;;;;;;8.90;2.70;;;11.50;99.90;;;;;;5035094;28;20136;-84
2022/05/13 02:29:30;;;;;;;8.97;3.20;;;11.50;99.90;;;;;;5047931;28;20130;-85
2022/05/13 02:32:08;;;;;;;6.87;2.73;;;11.40;99.90;;;;;;5073558;28;20050;-83
2022/05/13 02:34:37;;;;;;;6.63;2.50;;;11.30;99.90;;;;;;5070503;22;20106;-86
2022/05/13 02:37:43;;;;;;;10.30;2.70;;;11.40;99.90;;;;;;5035160;28;20169;-85
2022/05/13 02:44:44;;;;;;;7.50;2.67;;;11.50;99.90;;;;;;4928792;29;20047;-84
2022/05/13 02:47:12;;;;;;;11.33;3.33;;;11.40;99.90;;;;;;4902690;28;20515;-83
2022/05/13 02:49:47;;;;;;;8.00;2.70;;;11.40;99.90;;;;;;4951703;28;20102;-85
2022/05/13 02:52:39;;;;;;;13.70;3.27;;;11.30;99.90;;;;;;4929732;28;20673;-85
2022/05/13 02:55:22;;;;;;;7.37;2.73;;;11.40;99.90;;;;;;4998172;28;20044;-84
2022/05/13 02:58:18;;;;;;;10.32;2.95;;;11.40;99.90;;;;;;5052481;28;20032;-83
2022/05/13 03:01:02;;;;;;;10.23;2.93;;;11.30;99.90;;;;;;5037176;28;20079;-84
2022/05/13 03:03:33;;;;;;;8.38;3.00;;;11.30;99.90;;;;;;5053407;28;20044;-84
2022/05/13 03:06:26;;;;;;;12.17;3.43;;;11.40;99.90;;;;;;5085835;28;20051;-83
2022/05/13 03:09:13;;;;;;;15.13;3.77;;;11.30;99.90;;;;;;5053959;28;20051;-83
2022/05/13 03:11:42;;;;;;;11.97;3.60;;;11.20;99.90;;;;;;5056678;28;20036;-85
2022/05/13 03:14:09;;;;;;;10.00;2.90;;;11.40;99.90;;;;;;5063064;28;20049;-85
2022/05/13 03:16:36;;;;;;;9.17;3.07;;;11.30;99.90;;;;;;5059069;28;20207;-84
2022/05/13 03:19:04;;;;;;;9.60;3.43;;;11.30;99.90;;;;;;5055593;28;20395;-84
2022/05/13 03:21:36;;;;;;;16.23;3.93;;;11.50;99.90;;;;;;5067289;28;20036;-85
2022/05/13 03:24:13;;;;;;;10.80;3.00;;;11.40;99.90;;;;;;5056519;28;20044;-83
2022/05/13 03:26:42;;;;;;;11.00;3.37;;;11.30;99.90;;;;;;5055556;28;20064;-86
2022/05/13 03:29:53;;;;;;;12.67;3.53;;;11.30;99.90;;;;;;5076668;28;20051;-84
2022/05/13 03:32:24;;;;;;;8.27;3.43;;;11.30;99.90;;;;;;5050826;28;20106;-86
2022/05/13 03:35:04;;;;;;;11.50;3.17;;;11.20;99.90;;;;;;5039786;28;20177;-84
2022/05/13 03:37:34;;;;;;;9.43;3.58;;;11.30;99.90;;;;;;5029676;28;20052;-87
2022/05/13 03:40:46;;;;;;;11.97;3.33;;;11.30;99.90;;;;;;5034728;28;20056;-83
2022/05/13 03:43:21;;;;;;;;;;;11.20;99.90;;;;;;5033711;28;20137;-85
2022/05/13 03:45:48;;;;;;;16.37;3.40;;;11.20;99.90;;;;;;5049398;28;19917;-85
2022/05/13 03:48:56;;;;;;;12.90;3.57;;;11.40;99.90;;;;;;5052032;28;20036;-83
2022/05/13 03:52:02;;;;;;;12.47;3.43;;;11.20;99.90;;;;;;5056116;28;20072;-84
2022/05/13 03:54:38;;;;;;;14.83;3.13;;;11.30;99.90;;;;;;5055671;28;20044;-83
2022/05/13 03:57:06;;;;;;;9.37;3.30;;;11.20;99.90;;;;;;5053128;28;20044;-84
2022/05/13 03:59:58;;;;;;;12.20;3.40;;;11.20;99.90;;;;;;5040089;28;20126;-85
2022/05/13 04:02:27;;;;;;;14.20;3.40;;;11.30;99.90;;;;;;5054092;28;20119;-82
2022/05/13 04:10:49;;;;;;;11.30;3.40;;;11.30;99.90;;;;;;5069001;28;20721;-84
2022/05/13 04:16:17;;;;;;;13.80;3.80;;;11.20;99.90;;;;;;5053520;28;20036;-84
2022/05/13 04:19:16;;;;;;;17.77;4.13;;;11.30;99.90;;;;;;5091297;28;20059;-83
2022/05/13 04:22:17;;;;;;;10.03;3.37;;;11.50;99.90;;;;;;4977579;28;20050;-84
2022/05/13 04:24:42;;;;;;;16.93;4.20;;;11.20;99.90;;;;;;5072301;22;20508;-85
2022/05/13 04:27:20;;;;;;;17.53;4.20;;;11.30;99.90;;;;;;5089294;28;20083;-84
2022/05/13 04:29:46;;;;;;;13.77;4.13;;;11.40;99.90;;;;;;5076249;28;20048;-85
2022/05/13 04:32:14;;;;;;;10.90;3.37;;;11.40;99.90;;;;;;5073867;28;20084;-84
2022/05/13 04:38:03;;;;;;;10.63;3.50;;;11.30;99.90;;;;;;5057564;28;20048;-85
2022/05/13 04:40:29;;;;;;;21.37;4.40;;;11.40;99.90;;;;;;5049016;28;20490;-87
2022/05/13 04:42:58;;;;;;;16.53;4.10;;;11.60;99.90;;;;;;5077196;28;20040;-87
2022/05/13 04:45:30;;;;;;;15.17;3.90;;;11.40;99.90;;;;;;5049600;28;20082;-85
2022/05/13 04:48:18;;;;;;;10.63;3.00;;;11.60;99.90;;;;;;5082012;28;20130;-89
2022/05/13 04:50:58;;;;;;;14.00;3.60;;;11.40;99.90;;;;;;5048631;28;20043;-86
2022/05/13 04:53:47;;;;;;;11.53;3.63;;;11.60;99.90;;;;;;5061386;28;20094;-85
2022/05/13 04:56:24;;;;;;;13.90;4.13;;;11.40;99.90;;;;;;5028648;28;20048;-84
2022/05/13 04:58:50;;;;;;;16.70;4.37;;;11.60;99.90;;;;;;5066060;28;20044;-85
2022/05/13 05:01:17;;;;;;;20.17;4.47;;;11.40;99.90;;;;;;5045959;28;20102;-84
2022/05/13 05:03:44;;;;;;;16.93;3.90;;;11.70;99.90;;;;;;5055117;28;20054;-85
2022/05/13 05:06:57;;;;;;;18.40;4.10;;;11.70;99.90;;;;;;5063499;28;20044;-83
2022/05/13 05:09:38;;;;;;;17.20;3.67;;;11.70;99.90;;;;;;5064471;28;20556;-84
2022/05/13 05:15:12;;;;;;;14.77;3.67;;;11.70;99.90;;;;;;5073655;28;20036;-83
2022/05/13 05:18:47;;;;;;;19.03;4.63;;;11.70;99.90;;;;;;5078713;28;20044;-82
2022/05/13 05:21:13;;;;;;;13.70;3.75;;;11.70;99.90;;;;;;5042898;28;20035;-86
2022/05/13 05:23:48;;;;;;;21.83;5.07;;;11.90;99.90;;;;;;5036909;28;20047;-83
2022/05/13 05:26:46;;;;;;;19.03;4.47;;;11.80;99.90;;;;;;5058363;28;20091;-83
2022/05/13 05:29:11;;;;;;;15.50;4.40;;;11.80;99.90;;;;;;5052119;28;20163;-84
2022/05/13 05:31:43;;;;;;;13.60;4.03;;;11.80;99.90;;;;;;5049270;28;20043;-84
2022/05/13 05:34:21;;;;;;;16.27;4.20;;;11.80;99.90;;;;;;5039024;28;20051;-85
2022/05/13 05:37:56;;;;;;;17.13;4.35;;;12.00;99.90;;;;;;5051349;28;20116;-85
2022/05/13 05:40:34;;;;;;;16.27;4.20;;;12.20;99.90;;;;;;5053174;28;20040;-83
2022/05/13 05:43:09;;;;;;;22.10;4.97;;;12.00;99.90;;;;;;5071699;28;20046;-85
2022/05/13 05:45:45;;;;;;;20.37;4.27;;;12.20;99.90;;;;;;5056360;28;20044;-83
2022/05/13 05:48:23;;;;;;;20.70;4.70;;;12.20;99.90;;;;;;5055532;28;20040;-83
2022/05/13 05:50:50;;;;;;;17.33;4.47;;;12.10;99.90;;;;;;5076753;28;20097;-82
2022/05/13 05:57:13;;;;;;;18.60;4.90;;;12.40;99.90;;;;;;5072629;28;20085;-83
2022/05/13 05:58:48;;;;;;;16.53;4.93;;;12.50;99.90;;;;;;5055624;28;20135;-85
2022/05/13 06:01:14;;;;;;;17.77;4.77;;;12.70;99.90;;;;;;5080077;28;20050;-82
2022/05/13 06:03:40;;;;;;;20.83;5.23;;;13.10;99.90;;;;;;5061907;28;20048;-83
2022/05/13 06:06:09;;;;;;;17.03;4.60;;;13.00;99.90;;;;;;5081162;28;20114;-84
2022/05/13 06:08:35;;;;;;;15.90;4.43;;;13.10;99.90;;;;;;5079547;28;20123;-85
2022/05/13 06:11:01;;;;;;;18.33;4.20;;;13.30;99.90;;;;;;5072028;28;20124;-87
2022/05/13 06:13:27;;;;;;;15.33;4.43;;;13.50;99.90;;;;;;5048946;28;20070;-86
2022/05/13 06:16:00;;;;;;;15.73;4.33;;;13.50;99.90;;;;;;5041865;28;20574;-83
2022/05/13 06:18:26;;;;;;;13.63;3.65;;;13.50;99.90;;;;;;5053527;28;20048;-83
2022/05/13 06:20:51;;;;;;;18.57;4.37;;;13.70;99.90;;;;;;5043110;28;20106;-84
2022/05/13 06:23:17;;;;;;;17.13;4.60;;;13.80;99.90;;;;;;5061248;28;20038;-86
2022/05/13 06:25:43;;;;;;;12.80;4.30;;;13.90;99.90;;;;;;5051661;28;20494;-87
2022/05/13 06:28:09;;;;;;;12.30;4.17;;;13.90;99.90;;;;;;5057055;28;20402;-88
2022/05/13 06:30:36;;;;;;;14.77;4.23;;;14.00;99.90;;;;;;5037634;28;20045;-82
2022/05/13 06:33:10;;;;;;;15.63;4.17;;;14.10;99.90;;;;;;5066688;28;20380;-85
2022/05/13 06:35:36;;;;;;;15.57;3.85;;;14.30;99.90;;;;;;5050660;28;20106;-88
2022/05/13 06:38:02;;;;;;;14.13;4.10;;;14.10;99.90;;;;;;5037969;28;20155;-84
2022/05/13 06:40:27;;;;;;;13.47;3.90;;;14.10;99.90;;;;;;5056140;28;20123;-84
2022/05/13 06:42:54;;;;;;;13.20;3.47;;;14.10;99.90;;;;;;5057601;28;20123;-80
2022/05/13 06:45:21;;;;;;;12.40;3.37;;;14.10;99.90;;;;;;5054150;28;20036;-84
2022/05/13 06:47:47;;;;;;;17.97;3.97;;;14.10;99.90;;;;;;5066654;28;20686;-85
2022/05/13 06:50:16;;;;;;;9.73;3.13;;;14.20;99.90;;;;;;5069749;28;20123;-85
2022/05/13 06:52:42;;;;;;;16.10;4.43;;;14.40;99.90;;;;;;5064321;28;20052;-84
2022/05/13 06:55:11;;;;;;;14.83;3.90;;;14.30;99.90;;;;;;5067286;28;20482;-84
2022/05/13 06:57:40;;;;;;;14.90;3.57;;;14.30;99.90;;;;;;5062942;28;20043;-85
2022/05/13 07:00:08;;;;;;;9.47;2.80;;;14.40;99.90;;;;;;5089684;28;20484;-86
2022/05/13 07:02:35;;;;;;;13.30;2.70;;;14.40;99.90;;;;;;5063598;28;20315;-88
2022/05/13 07:05:03;;;;;;;8.77;2.70;;;14.50;99.90;;;;;;5056477;28;20050;-90
2022/05/13 07:07:38;;;;;;;9.93;2.07;;;14.40;99.90;;;;;;5074150;28;20532;-87
2022/05/13 07:10:05;;;;;;;8.43;2.13;;;14.40;99.90;;;;;;5065046;28;20051;-81
2022/05/13 07:12:31;;;;;;;7.90;1.90;;;14.50;99.90;;;;;;5044598;28;20040;-82
2022/05/13 07:14:58;;;;;;;9.53;2.07;;;14.50;99.90;;;;;;5059344;28;20130;-82
2022/05/13 07:17:23;;;;;;;8.27;1.80;;;14.50;99.90;;;;;;5081801;28;20048;-82
2022/05/13 07:19:50;;;;;;;10.23;2.17;;;14.50;99.90;;;;;;5048035;28;20516;-81
2022/05/13 07:22:16;;;;;;;10.67;2.03;;;14.50;99.90;;;;;;5041948;28;20047;-81
2022/05/13 07:24:43;;;;;;;8.63;2.00;;;14.60;99.90;;;;;;5079521;28;20040;-81
2022/05/13 07:27:09;;;;;;;7.13;2.27;;;14.80;99.90;;;;;;5049493;28;20473;-86
2022/05/13 07:29:35;;;;;;;8.93;2.17;;;14.90;99.90;;;;;;5056671;28;20071;-86
2022/05/13 07:32:00;;;;;;;10.23;2.13;;;14.90;99.90;;;;;;5059072;28;20592;-84
2022/05/13 07:34:28;;;;;;;10.10;1.73;;;14.90;99.90;;;;;;5064491;28;20032;-89
2022/05/13 07:36:54;;;;;;;14.40;2.30;;;14.80;99.90;;;;;;5045548;28;20048;-85
2022/05/13 07:42:20;;;;;;;7.73;1.87;;;14.70;99.90;;;;;;5089184;28;20040;-81
2022/05/13 07:44:45;;;;;;;9.97;2.07;;;14.70;99.90;;;;;;5064896;28;20113;-79
2022/05/13 07:47:14;;;;;;;4.87;1.70;;;14.70;99.90;;;;;;5065470;28;20035;-81
2022/05/13 07:49:42;;;;;;;8.77;2.10;;;14.70;99.90;;;;;;5074288;28;20040;-80
2022/05/13 07:52:09;;;;;;;7.63;1.70;;;14.70;99.90;;;;;;5053238;28;20036;-81
2022/05/13 07:54:35;;;;;;;6.07;1.90;;;14.80;99.90;;;;;;5060690;28;20086;-80
2022/05/13 07:57:01;;;;;;;6.60;2.03;;;15.00;99.90;;;;;;5068863;28;20515;-85
2022/05/13 08:02:40;;;;;;;6.73;1.63;;;15.10;99.90;;;;;;5067359;28;20174;-87
2022/05/13 08:05:07;;;;;;;5.97;1.80;;;15.30;99.90;;;;;;5090397;28;20075;-85
2022/05/13 08:07:33;;;;;;;4.87;1.70;;;15.50;99.90;;;;;;5061005;28;20398;-84
2022/05/13 08:09:59;;;;;;;6.40;1.50;;;15.60;99.90;;;;;;5057118;28;20513;-81
2022/05/13 08:12:25;;;;;;;8.73;2.00;;;15.60;99.90;;;;;;5075053;28;20036;-79
2022/05/13 08:14:53;;;;;;;10.47;2.77;;;15.80;99.90;;;;;;5044378;28;20070;-87
2022/05/13 08:17:18;;;;;;;6.03;1.60;;;15.90;99.90;;;;;;5075284;28;20042;-84
2022/05/13 08:19:44;;;;;;;6.40;1.60;;;16.10;99.90;;;;;;5054672;28;20456;-86
2022/05/13 08:22:10;;;;;;;5.60;1.90;;;16.20;99.90;;;;;;5076189;28;20032;-82
2022/05/13 08:24:35;;;;;;;8.17;1.70;;;16.30;99.90;;;;;;5071706;28;20043;-88
2022/05/13 08:27:02;;;;;;;8.63;2.00;;;16.30;99.90;;;;;;5041740;28;20067;-84
2022/05/13 08:29:57;;;;;;;9.43;2.00;;;16.20;99.90;;;;;;5058688;28;20040;-86
2022/05/13 08:32:23;;;;;;;10.23;1.83;;;16.10;99.90;;;;;;5085356;28;20118;-84
2022/05/13 08:35:26;;;;;;;5.80;1.73;;;15.80;99.90;;;;;;5079402;28;20573;-88
2022/05/13 08:37:55;;;;;;;9.30;1.97;;;15.80;99.90;;;;;;5057558;28;20084;-89
2022/05/13 08:40:31;;;;;;;7.10;1.60;;;15.50;99.90;;;;;;5061918;28;20040;-85
2022/05/13 08:42:59;;;;;;;6.67;1.43;;;15.50;99.90;;;;;;5077802;28;20402;-84
2022/05/13 08:45:27;;;;;;;6.10;1.50;;;15.70;99.90;;;;;;5054691;28;20454;-84
2022/05/13 08:47:55;;;;;;;7.33;1.60;;;15.70;99.90;;;;;;5053806;28;20564;-80
2022/05/13 08:50:25;;;;;;;5.93;1.43;;;16.00;99.90;;;;;;5049489;28;20110;-85
2022/05/13 08:53:07;;;;;;;7.20;1.50;;;16.10;99.90;;;;;;5066826;28;20044;-82
2022/05/13 08:55:37;;;;;;;12.33;1.80;;;16.10;99.90;;;;;;5060638;28;20055;-81
2022/05/13 08:58:05;;;;;;;8.40;2.10;;;15.80;99.90;;;;;;5040806;28;20490;-82
2022/05/13 09:00:36;;;;;;;4.23;1.50;;;15.70;99.90;;;;;;5080914;28;20514;-82
2022/05/13 09:03:11;;;;;;;7.03;1.97;;;15.60;99.90;;;;;;5059299;28;20039;-81
2022/05/13 09:05:41;;;;;;;7.63;1.77;;;15.50;99.90;;;;;;5058848;28;20037;-81
2022/05/13 09:08:08;;;;;;;8.63;1.80;;;15.50;99.90;;;;;;5067758;28;20048;-84
2022/05/13 09:10:38;;;;;;;8.90;1.40;;;15.50;99.90;;;;;;5080830;28;20047;-83
2022/05/13 09:13:12;;;;;;;6.73;1.70;;;15.70;99.90;;;;;;5058063;28;20112;-84
2022/05/13 09:15:44;;;;;;;8.10;1.97;;;15.80;99.90;;;;;;5061196;28;20047;-84
2022/05/13 09:18:17;;;;;;;6.63;1.70;;;16.00;99.90;;;;;;5034435;28;20044;-84
2022/05/13 09:20:48;;;;;;;6.40;1.60;;;16.20;99.90;;;;;;5035277;28;20161;-84
2022/05/13 09:23:14;;;;;;;6.80;1.60;;;16.60;99.90;;;;;;5054609;28;20050;-83
2022/05/13 09:26:03;;;;;;;11.30;1.53;;;17.20;99.90;;;;;;5049953;28;20062;-81
2022/05/13 09:28:30;;;;;;;6.57;2.17;;;17.60;99.90;;;;;;5057478;28;20074;-84
2022/05/13 09:31:06;;;;;;;6.63;1.10;;;17.70;99.90;;;;;;5040763;28;20051;-87
2022/05/13 09:33:34;;;;;;;5.83;1.60;;;17.50;99.70;;;;;;5067930;28;20044;-85
2022/05/13 09:36:01;;;;;;;8.47;1.27;;;17.40;99.90;;;;;;5057479;28;20035;-83
2022/05/13 09:38:31;;;;;;;5.40;1.40;;;17.40;99.90;;;;;;5055701;28;20142;-87
2022/05/13 09:40:59;;;;;;;8.00;1.40;;;17.50;99.90;;;;;;5068799;28;20058;-87
2022/05/13 09:43:36;;;;;;;9.83;2.17;;;17.30;99.60;;;;;;5073040;28;20048;-85
2022/05/13 09:46:22;;;;;;;8.60;1.60;;;17.10;99.40;;;;;;5055517;28;20153;-84
2022/05/13 09:48:55;;;;;;;6.23;1.40;;;16.80;99.70;;;;;;5074018;28;20062;-80
2022/05/13 09:51:25;;;;;;;5.63;1.33;;;16.60;99.90;;;;;;5053339;28;20136;-81
2022/05/13 09:54:03;;;;;;;4.60;1.30;;;16.60;99.90;;;;;;5049276;28;20048;-84
2022/05/13 09:56:43;;;;;;;4.97;1.27;;;16.60;99.90;;;;;;5086103;28;20066;-85
2022/05/13 09:59:21;;;;;;;4.53;1.40;;;16.70;99.90;;;;;;5049572;28;20041;-84
2022/05/13 10:01:48;;;;;;;6.03;1.37;;;16.80;99.90;;;;;;5058879;28;20055;-83
2022/05/13 10:04:20;;;;;;;5.90;1.60;;;16.70;99.90;;;;;;5055009;28;20048;-84
2022/05/13 10:06:47;;;;;;;6.53;1.60;;;16.70;99.90;;;;;;5062524;28;20071;-84
2022/05/13 10:15:06;;;;;;;5.57;1.60;;;17.00;99.90;;;;;;5046905;28;20098;-82
2022/05/13 10:17:40;;;;;;;6.17;1.80;;;17.10;99.40;;;;;;5071512;28;20040;-84
2022/05/13 10:20:13;;;;;;;6.10;1.70;;;17.30;99.60;;;;;;5055707;28;20410;-85
2022/05/13 10:23:07;;;;;;;8.07;1.70;;;17.40;99.30;;;;;;5035687;28;20161;-89
2022/05/13 10:25:40;;;;;;;7.17;1.70;;;17.80;99.90;;;;;;5041383;28;20036;-89
2022/05/13 10:28:11;;;;;;;6.88;1.20;;;18.40;98.70;;;;;;5048497;28;20056;-84
2022/05/13 10:30:43;;;;;;;5.67;1.20;;;18.30;97.60;;;;;;5075474;28;20131;-81
2022/05/13 10:33:19;;;;;;;7.23;1.67;;;18.00;97.40;;;;;;5039543;28;20383;-86
2022/05/13 10:35:51;;;;;;;7.57;1.30;;;17.80;96.80;;;;;;5051963;28;20071;-87
2022/05/13 10:38:26;;;;;;;12.00;2.00;;;17.70;97.70;;;;;;5054627;28;20058;-87
2022/05/13 10:40:54;;;;;;;7.97;2.00;;;17.70;97.70;;;;;;5064224;28;20053;-84
2022/05/13 10:43:28;;;;;;;11.07;1.77;;;18.00;97.90;;;;;;5043695;28;20044;-85
2022/05/13 10:46:06;;;;;;;10.82;1.77;;;17.90;97.70;;;;;;5036842;28;20036;-84
2022/05/13 10:48:34;;;;;;;5.80;1.50;;;17.80;98.00;;;;;;5067782;28;20138;-85
2022/05/13 10:51:07;;;;;;;7.33;1.53;;;17.50;98.30;;;;;;5048075;28;20058;-83
2022/05/13 10:53:46;;;;;;;6.60;2.13;;;17.50;99.70;;;;;;5085853;28;20044;-84
2022/05/13 10:56:18;;;;;;;6.03;1.67;;;18.20;99.90;;;;;;5070603;28;20040;-83
2022/05/13 10:58:52;;;;;;;7.80;1.97;;;18.60;98.00;;;;;;5056760;28;20629;-83
2022/05/13 11:01:44;;;;;;;6.27;1.87;;;18.50;98.30;;;;;;5078193;28;20040;-83
2022/05/13 11:04:23;;;;;;;7.13;2.13;;;18.90;98.40;;;;;;5033328;28;20048;-84
2022/05/13 11:07:05;;;;;;;7.53;1.93;;;19.50;96.90;;;;;;5070304;28;20513;-86
2022/05/13 11:09:52;;;;;;;8.13;2.00;;;19.30;95.80;;;;;;5057371;28;20043;-82
2022/05/13 11:12:28;;;;;;;7.07;1.60;;;18.70;96.40;;;;;;5055530;28;20494;-84
2022/05/13 11:15:06;;;;;;;10.87;1.83;;;18.70;97.70;;;;;;5033767;28;20428;-83
2022/05/13 11:17:39;;;;;;;8.97;1.80;;;19.30;97.40;;;;;;5058892;28;20056;-86
2022/05/13 11:20:19;;;;;;;11.63;1.97;;;19.60;95.30;;;;;;5078649;28;20074;-82
2022/05/13 11:22:56;;;;;;;4.57;1.80;;;19.50;95.20;;;;;;5052991;28;20067;-85
2022/05/13 11:28:58;;;;;;;7.67;1.83;;;18.90;96.00;;;;;;5077608;28;20123;-88
2022/05/13 11:31:47;;;;;;;4.47;1.90;;;18.80;95.30;;;;;;5074726;28;20104;-86
2022/05/13 11:34:30;;;;;;;4.60;1.30;;;18.50;95.30;;;;;;5056974;28;20063;-86
2022/05/13 11:37:03;;;;;;;9.37;1.70;;;18.70;97.00;;;;;;5061462;28;20035;-88
2022/05/13 11:43:19;;;;;;;5.07;1.50;;;19.90;95.40;;;;;;5060241;28;20396;-85
2022/05/13 11:46:20;;;;;;;5.77;1.70;;;20.70;93.70;;;;;;5045285;28;20580;-85
2022/05/13 11:48:49;;;;;;;6.73;1.70;;;20.40;92.90;;;;;;5061474;28;20465;-82
2022/05/13 11:51:22;;;;;;;5.93;1.33;;;19.70;92.50;;;;;;5045895;28;20560;-89
2022/05/13 11:54:16;;;;;;;8.87;1.97;;;19.20;93.80;;;;;;5041784;28;20044;-88
2022/05/13 11:56:45;;;;;;;9.73;1.70;;;18.80;94.40;;;;;;5042165;28;20050;-85
2022/05/13 11:59:47;;;;;;;8.97;1.90;;;18.60;95.20;;;;;;5079753;28;20046;-83
2022/05/13 12:02:29;;;;;;;11.07;2.17;;;18.40;95.80;;;;;;5063045;28;20055;-84
2022/05/13 12:05:06;;;;;;;7.03;1.50;;;18.30;96.20;;;;;;5073000;28;20047;-84
2022/05/13 12:07:36;;;;;;;6.27;1.57;;;18.40;96.40;;;;;;5071687;28;20417;-82
2022/05/13 12:10:06;;;;;;;10.10;2.00;;;18.50;96.00;;;;;;5060159;28;20036;-81
2022/05/13 12:12:58;;;;;;;7.07;1.43;;;18.70;96.30;;;;;;5075294;28;20055;-88
2022/05/13 12:15:42;;;;;;;9.87;1.77;;;18.70;95.20;;;;;;5056281;28;20065;-86
2022/05/13 12:18:22;;;;;;;6.63;1.67;;;18.60;95.60;;;;;;5057671;28;20049;-82
2022/05/13 12:20:52;;;;;;;7.13;1.50;;;19.20;95.00;;;;;;5038768;28;20063;-86
2022/05/13 12:23:25;;;;;;;12.87;2.57;;;19.40;93.80;;;;;;5053686;28;20036;-82
2022/05/13 12:25:54;;;;;;;6.13;1.23;;;19.30;92.90;;;;;;5033948;28;20044;-85
2022/05/13 12:28:29;;;;;;;8.40;1.93;;;19.00;92.80;;;;;;5039766;28;20068;-81
2022/05/13 12:30:57;;;;;;;8.23;1.87;;;18.80;93.90;;;;;;5049085;28;20082;-84
2022/05/13 12:33:37;;;;;;;9.53;1.77;;;18.90;93.00;;;;;;5052479;28;20462;-88
2022/05/13 12:39:07;;;;;;;6.90;1.40;;;19.00;93.40;;;;;;5055147;28;20044;-82
2022/05/13 12:41:51;;;;;;;6.17;1.77;;;19.00;93.30;;;;;;5057402;28;20058;-82
2022/05/13 12:44:26;;;;;;;9.83;1.97;;;19.00;93.90;;;;;;5073440;28;20048;-83
2022/05/13 12:47:20;;;;;;;5.00;1.30;;;19.00;93.20;;;;;;5039906;28;20138;-84
2022/05/13 12:49:51;;;;;;;;;;;18.90;94.40;;;;;;5075486;28;20577;-83
2022/05/13 12:52:32;;;;;;;8.90;1.70;;;19.10;93.90;;;;;;5074162;28;20453;-84
2022/05/13 12:55:05;;;;;;;5.60;1.50;;;19.10;92.30;;;;;;5070599;28;20054;-86
2022/05/13 12:57:57;;;;;;;;;;;18.80;92.80;;;;;;5042179;28;20052;-87
2022/05/13 13:00:30;;;;;;;4.87;1.37;;;18.80;92.50;;;;;;5056677;28;19920;-83
2022/05/13 13:02:58;;;;;;;6.72;1.52;;;18.70;91.50;;;;;;5042376;28;20043;-82
2022/05/13 13:05:29;;;;;;;7.93;1.70;;;18.60;91.40;;;;;;5072842;28;20422;-86
2022/05/13 13:08:01;;;;;;;6.07;1.30;;;18.60;92.00;;;;;;5041209;28;20048;-85
2022/05/13 13:10:27;;;;;;;5.23;1.37;;;18.70;91.50;;;;;;5055394;28;20433;-87
2022/05/13 13:13:03;;;;;;;7.10;1.70;;;18.50;91.50;;;;;;5072703;28;20106;-81
2022/05/13 13:15:33;;;;;;;7.80;1.50;;;18.70;91.40;;;;;;5076176;22;20414;-82
2022/05/13 13:18:10;;;;;;;10.03;1.73;;;18.60;91.60;;;;;;5091381;27;20413;-84
2022/05/13 13:20:48;;;;;;;8.87;1.90;;;18.50;91.30;;;;;;5083129;28;20573;-83
2022/05/13 13:23:15;;;;;;;7.50;1.70;;;18.30;91.30;;;;;;5062969;27;20032;-85
2022/05/13 13:25:43;;;;;;;8.90;1.67;;;18.30;90.90;;;;;;5066959;28;20047;-86
2022/05/13 13:28:14;;;;;;;5.63;1.53;;;18.30;91.50;;;;;;5093781;28;20073;-82
2022/05/13 13:30:43;;;;;;;5.43;1.67;;;18.30;91.60;;;;;;5069513;28;20067;-84
2022/05/13 13:33:11;;;;;;;7.53;1.40;;;18.30;90.00;;;;;;5080321;28;20111;-85
2022/05/13 13:35:39;;;;;;;4.73;1.50;;;18.20;90.50;;;;;;5065564;28;20047;-85
2022/05/13 13:38:36;;;;;;;7.27;1.67;;;18.40;91.20;;;;;;5067440;28;20043;-84
2022/05/13 13:41:02;;;;;;;11.40;2.07;;;18.80;90.60;;;;;;5072568;28;20074;-84
2022/05/13 13:43:30;;;;;;;6.33;1.40;;;19.00;90.60;;;;;;5063756;28;20093;-85
2022/05/13 13:46:04;;;;;;;5.77;1.70;;;19.20;89.20;;;;;;5070136;27;20047;-86
2022/05/13 13:48:37;;;;;;;9.90;1.80;;;19.10;89.70;;;;;;5090333;27;20057;-84
2022/05/13 13:51:04;;;;;;;11.53;2.10;;;19.00;90.50;;;;;;5079912;28;20048;-83
2022/05/13 13:53:33;;;;;;;6.03;1.97;;;18.80;90.80;;;;;;5082126;27;20051;-86
2022/05/13 13:56:05;;;;;;;6.30;1.80;;;18.90;90.50;;;;;;5095710;27;20043;-84
2022/05/13 13:58:42;;;;;;;7.33;1.70;;;18.90;90.90;;;;;;5082708;27;20540;-85
2022/05/13 14:01:14;;;;;;;10.43;1.83;;;19.10;90.60;;;;;;5107027;27;20050;-86
2022/05/13 14:03:41;;;;;;;10.30;2.07;;;19.10;88.90;;;;;;5087555;28;20101;-87
2022/05/13 14:06:24;;;;;;;9.10;1.70;;;19.10;88.90;;;;;;5093111;27;20047;-84
2022/05/13 14:08:53;;;;;;;7.20;1.63;;;18.70;88.20;;;;;;5110037;27;20049;-82
2022/05/13 14:11:23;;;;;;;11.00;2.07;;;18.60;89.70;;;;;;5082652;28;20062;-83
2022/05/13 14:13:51;;;;;;;6.80;1.57;;;18.50;90.10;;;;;;5105110;27;20438;-84
2022/05/13 14:16:20;;;;;;;6.73;1.80;;;18.50;90.20;;;;;;5085927;28;20050;-87
2022/05/13 14:18:53;;;;;;;7.93;1.97;;;18.50;90.30;;;;;;5080683;27;20564;-84
2022/05/13 14:21:27;;;;;;;6.83;1.83;;;18.40;90.60;;;;;;5120763;27;20039;-86
2022/05/13 14:23:58;;;;;;;6.47;1.70;;;18.30;90.50;;;;;;5074464;27;20637;-86
2022/05/13 14:26:27;;;;;;;8.80;2.03;;;18.20;90.60;;;;;;5076121;28;20036;-87
2022/05/13 14:28:55;;;;;;;7.00;1.93;;;18.30;90.70;;;;;;5089620;28;20035;-88
2022/05/13 14:31:29;;;;;;;12.33;2.30;;;18.40;91.00;;;;;;5089090;28;20476;-84